ESST

Torsby Airport

Sweden
METAR ESST 181250Z AUTO 19003KT 9999 BKN033/// M06/M06 Q1024
Observed Flight Rules
Dec-18 @ 12:50 UTC (26 minutes ago) Visual Flight Rules
Wind Visibility Clouds
190° at 3 knots 10,000+ meters
  • Broken at 3,300' AGL
Temperatures Readings
Current -6°C / 21°F
Dewpoint -6°C / 21°F
Humidity 100%
Altimeter 30.24" Hg
Pressure 1024 hPa
Elevation 120
METAR ESST 181250Z AUTO 19003KT 9999 BKN033/// M06/M06 Q1024
Observed Flight Rules
Dec-18 @ 12:50 UTC
(26 minutes ago)
VFR
Wind Visibility
190° at 3 knots 10,000+ meters
Clouds
  • Broken at 3,300' AGL
Temperature Dewpoint
-6°C / 21°F -6°C / 21°F
Humidity Altimeter Pressure
100% 30.24" Hg 1024 hPa